Bancroft, Nebraska
Current Conditions -  °F | °C
As of 7:54 AM on Thursday 18 Dec 2014 (Local Time) from KTQE Reporting Station
Overcast Overcast  
Wind Chill: 20°   Ceiling: 6000
Heat Index: 27°   Visibility: 10mi
Dew Point: 21°   Wind: 6mph
Humidity: 78%   Direction: 120°ESE
Pressure: 30.24"   Gusts: NA
Location:  42.01°N, 96.57°W
Report Text: KTQE 181354Z AUTO 12005KT 10SM OVC060 M03/M06 A3024 RMK AO2 SLP251 T10281061
Loading
Personal Weather Stations






























Interactive Weather Map New forecast layout! Learn more

10-Day Weather Forecast

Advertisements
Track Severe Weather on mobile